createdAt,value
2022-12-20T00:01:54.712Z,31.50
2022-12-20T00:04:28.684Z,30.80
2022-12-20T00:07:02.743Z,30.20
2022-12-20T00:09:36.480Z,28.50
2022-12-20T00:12:10.907Z,26.90
2022-12-20T00:14:45.476Z,26.40
2022-12-20T00:17:19.498Z,23.00
2022-12-20T00:19:53.367Z,27.70
2022-12-20T00:22:27.139Z,28.60
2022-12-20T00:25:00.843Z,25.90
2022-12-20T00:27:34.493Z,25.20
2022-12-20T00:30:12.172Z,24.80
2022-12-20T00:32:46.763Z,25.30
2022-12-20T00:35:20.665Z,27.40
2022-12-20T00:37:54.341Z,27.10
2022-12-20T00:40:28.413Z,27.40
2022-12-20T00:43:02.551Z,28.10
2022-12-20T00:45:36.209Z,27.60
2022-12-20T00:48:11.740Z,24.60
2022-12-20T00:50:46.006Z,28.60
2022-12-20T00:53:26.211Z,23.70
2022-12-20T00:56:00.852Z,27.40
2022-12-20T00:58:37.707Z,22.60
2022-12-20T01:01:22.578Z,27.70
2022-12-20T01:03:57.467Z,21.80
2022-12-20T01:06:32.321Z,22.50
2022-12-20T01:09:06.775Z,21.10
2022-12-20T01:11:42.429Z,27.20
2022-12-20T01:14:20.535Z,21.30
2022-12-20T01:16:54.252Z,22.20
2022-12-20T01:19:28.810Z,24.40
2022-12-20T01:22:02.678Z,27.20
2022-12-20T01:24:37.507Z,27.30
2022-12-20T01:27:11.429Z,24.40
2022-12-20T01:29:45.328Z,24.90
2022-12-20T01:32:19.315Z,29.00
2022-12-20T01:34:54.897Z,27.10
2022-12-20T01:37:28.631Z,27.90
2022-12-20T01:40:02.539Z,25.00
2022-12-20T01:42:36.703Z,26.80
2022-12-20T01:45:22.031Z,26.60
2022-12-20T01:47:56.962Z,22.60
2022-12-20T01:50:31.131Z,26.90
2022-12-20T01:53:06.302Z,25.00
2022-12-20T01:55:40.519Z,21.80
2022-12-20T01:58:17.576Z,22.00
2022-12-20T02:00:52.254Z,26.40
2022-12-20T02:03:26.550Z,22.00
2022-12-20T02:06:11.029Z,25.20
2022-12-20T02:08:46.652Z,23.40
2022-12-20T02:11:45.851Z,24.50
2022-12-20T02:14:41.318Z,26.30
2022-12-20T02:17:27.577Z,23.30
2022-12-20T02:20:48.191Z,23.50
2022-12-20T02:24:14.398Z,26.40
2022-12-20T02:27:40.632Z,23.00
2022-12-20T02:30:19.941Z,26.00
2022-12-20T02:33:02.241Z,27.50
2022-12-20T02:35:39.478Z,26.50
2022-12-20T02:38:32.143Z,24.10
2022-12-20T02:41:20.565Z,22.90
2022-12-20T02:44:19.080Z,21.10
2022-12-20T02:46:55.340Z,24.70
2022-12-20T02:49:38.703Z,21.30
2022-12-20T02:52:15.887Z,23.00
2022-12-20T02:54:50.317Z,24.20
2022-12-20T02:57:32.420Z,22.10
2022-12-20T03:00:11.924Z,24.60
2022-12-20T03:03:06.395Z,22.20
2022-12-20T03:05:48.828Z,24.10
2022-12-20T03:08:26.724Z,21.80
2022-12-20T03:11:00.444Z,23.30
2022-12-20T03:13:34.735Z,25.10
2022-12-20T03:16:13.008Z,23.40
2022-12-20T03:18:48.230Z,22.80
2022-12-20T03:21:22.099Z,23.50
2022-12-20T03:23:55.950Z,20.70
2022-12-20T03:26:29.815Z,26.10
2022-12-20T03:29:05.536Z,28.60
2022-12-20T03:31:40.593Z,21.40
2022-12-20T03:34:14.316Z,20.40
2022-12-20T03:36:48.459Z,24.50
2022-12-20T03:39:22.189Z,21.90
2022-12-20T03:41:57.910Z,25.50
2022-12-20T03:44:31.769Z,21.20
2022-12-20T03:47:06.071Z,24.40
2022-12-20T03:49:40.934Z,24.10
2022-12-20T03:52:17.113Z,20.80
2022-12-20T03:54:51.592Z,23.30
2022-12-20T03:57:28.083Z,22.00
2022-12-20T04:00:03.387Z,20.80
2022-12-20T04:02:37.418Z,21.10
2022-12-20T04:05:12.683Z,20.90
2022-12-20T04:07:46.472Z,22.70
2022-12-20T04:10:20.415Z,22.20
2022-12-20T04:12:54.432Z,19.80
2022-12-20T04:15:28.568Z,23.10
2022-12-20T04:18:02.450Z,26.50
2022-12-20T04:20:36.477Z,22.70
2022-12-20T04:23:20.993Z,24.70
2022-12-20T04:25:55.596Z,23.90
2022-12-20T04:28:30.426Z,25.20
2022-12-20T04:31:04.855Z,25.00
2022-12-20T04:33:43.285Z,23.70
2022-12-20T04:36:18.249Z,19.30
2022-12-20T04:38:52.122Z,24.30
2022-12-20T04:41:27.253Z,20.00
2022-12-20T04:44:06.819Z,25.20
2022-12-20T04:46:43.385Z,24.10
2022-12-20T04:49:19.643Z,25.20
2022-12-20T04:51:53.385Z,21.90
2022-12-20T04:54:30.668Z,26.40
2022-12-20T04:57:11.864Z,23.30
2022-12-20T04:59:45.786Z,27.10
2022-12-20T05:02:20.207Z,27.10
2022-12-20T05:05:03.778Z,26.10
2022-12-20T05:07:41.472Z,24.70
2022-12-20T05:10:16.083Z,28.90
2022-12-20T05:12:50.215Z,27.00
2022-12-20T05:15:31.891Z,28.90
2022-12-20T05:18:07.516Z,32.10
2022-12-20T05:20:49.091Z,30.50
2022-12-20T05:23:40.976Z,30.10
2022-12-20T05:26:19.984Z,23.50
2022-12-20T05:28:54.193Z,26.60
2022-12-20T05:31:29.030Z,25.90
2022-12-20T05:34:03.186Z,28.60
2022-12-20T05:36:39.318Z,31.90
2022-12-20T05:39:14.131Z,27.70
2022-12-20T05:41:48.765Z,28.00
2022-12-20T05:44:22.971Z,28.90
2022-12-20T05:46:58.558Z,24.90
2022-12-20T05:49:35.921Z,27.90
2022-12-20T05:52:11.459Z,39.80
2022-12-20T05:54:47.042Z,43.50
2022-12-20T05:57:25.477Z,39.10
2022-12-20T05:59:59.999Z,38.70
2022-12-20T06:02:34.166Z,29.50
2022-12-20T06:05:11.793Z,25.90
2022-12-20T06:07:46.029Z,34.60
2022-12-20T06:10:21.601Z,35.90
2022-12-20T06:13:00.215Z,44.80
2022-12-20T06:15:34.744Z,39.70
2022-12-20T06:18:09.854Z,41.60
2022-12-20T06:20:50.615Z,36.30
2022-12-20T06:23:27.705Z,34.00
2022-12-20T06:26:10.385Z,41.30
2022-12-20T06:28:54.844Z,33.80
2022-12-20T06:31:32.938Z,40.10
2022-12-20T06:34:08.018Z,39.70
2022-12-20T06:36:45.554Z,36.80
2022-12-20T06:39:32.404Z,32.50
2022-12-20T06:42:10.118Z,33.30
2022-12-20T06:44:46.217Z,37.30
2022-12-20T06:47:20.190Z,39.80
2022-12-20T06:49:54.002Z,34.70
2022-12-20T06:52:29.807Z,39.80
2022-12-20T06:55:03.538Z,41.70
2022-12-20T06:57:40.430Z,41.50
2022-12-20T07:00:18.329Z,51.70
2022-12-20T07:02:52.100Z,41.90
2022-12-20T07:05:26.379Z,42.30
2022-12-20T07:08:00.289Z,40.60
2022-12-20T07:10:34.890Z,44.90
2022-12-20T07:13:09.355Z,37.30
2022-12-20T07:15:43.163Z,33.00
2022-12-20T07:18:18.020Z,30.10
2022-12-20T07:20:53.576Z,32.00
2022-12-20T07:23:28.154Z,37.10
2022-12-20T07:26:05.161Z,39.60
2022-12-20T07:28:39.563Z,36.50
2022-12-20T07:31:21.496Z,37.60
2022-12-20T07:33:56.088Z,31.60
2022-12-20T07:36:30.282Z,31.80
2022-12-20T07:39:04.560Z,32.40
2022-12-20T07:41:39.097Z,29.40
2022-12-20T07:44:13.700Z,33.60
2022-12-20T07:46:47.892Z,28.60
2022-12-20T07:49:22.646Z,36.50
2022-12-20T07:52:01.775Z,26.50
2022-12-20T07:54:42.469Z,32.10
2022-12-20T07:57:21.739Z,30.90
2022-12-20T08:00:02.535Z,30.70
2022-12-20T08:02:54.059Z,30.80
2022-12-20T08:05:28.717Z,32.10
2022-12-20T08:08:05.143Z,31.10
2022-12-20T08:10:39.878Z,26.20
2022-12-20T08:13:14.355Z,29.00
2022-12-20T08:15:48.606Z,32.50
2022-12-20T08:18:22.372Z,28.30
2022-12-20T08:20:56.896Z,30.30
2022-12-20T08:23:31.119Z,34.30
2022-12-20T08:26:07.177Z,27.60
2022-12-20T08:28:41.228Z,30.40
2022-12-20T08:31:16.249Z,30.60
2022-12-20T08:33:51.091Z,30.00
2022-12-20T08:36:24.949Z,32.80
2022-12-20T08:38:58.947Z,31.90
2022-12-20T08:41:35.126Z,28.80
2022-12-20T08:44:10.923Z,24.50
2022-12-20T08:46:46.940Z,31.40
2022-12-20T08:49:21.888Z,28.20
2022-12-20T08:51:56.073Z,31.40
2022-12-20T08:54:30.663Z,27.10
2022-12-20T08:57:04.740Z,25.80
2022-12-20T08:59:39.679Z,29.40
2022-12-20T09:02:14.916Z,30.20
2022-12-20T09:04:50.668Z,29.40
2022-12-20T09:07:25.253Z,34.20
2022-12-20T09:09:59.355Z,32.40
2022-12-20T09:12:33.694Z,33.60
2022-12-20T09:15:09.448Z,36.50
2022-12-20T09:17:43.713Z,39.90
2022-12-20T09:20:18.443Z,38.30
2022-12-20T09:22:52.324Z,38.70
2022-12-20T09:25:26.377Z,24.20
2022-12-20T09:28:00.921Z,35.10
2022-12-20T09:30:34.924Z,39.50
2022-12-20T09:33:10.459Z,34.70
2022-12-20T09:35:51.358Z,41.80
2022-12-20T09:38:26.312Z,42.10
2022-12-20T09:41:10.084Z,43.90
2022-12-20T09:43:44.845Z,35.70
2022-12-20T09:46:20.941Z,39.40
2022-12-20T09:48:55.932Z,36.10
2022-12-20T09:52:15.542Z,36.30
2022-12-20T09:55:03.105Z,37.40
2022-12-20T09:57:56.930Z,32.90
2022-12-20T10:00:31.542Z,37.70
2022-12-20T10:03:10.444Z,36.90
2022-12-20T10:05:55.144Z,34.30
2022-12-20T10:08:51.752Z,33.40
2022-12-20T10:11:55.132Z,33.10
2022-12-20T10:14:49.258Z,26.40
2022-12-20T10:17:39.766Z,33.00
2022-12-20T10:20:32.731Z,36.40
2022-12-20T10:23:14.742Z,31.50
2022-12-20T10:25:51.171Z,31.80
2022-12-20T10:28:32.647Z,34.10
2022-12-20T10:31:14.005Z,30.60
2022-12-20T10:33:48.879Z,33.50
2022-12-20T10:36:30.761Z,28.30
2022-12-20T10:39:08.660Z,31.90
2022-12-20T10:41:53.378Z,32.60
2022-12-20T10:44:32.929Z,30.30
2022-12-20T10:47:37.930Z,28.40
2022-12-20T10:50:21.466Z,30.30
2022-12-20T10:53:27.486Z,32.30
2022-12-20T10:56:22.506Z,31.70
2022-12-20T10:59:03.282Z,33.10
2022-12-20T11:01:44.541Z,35.70
2022-12-20T11:04:32.765Z,39.30
2022-12-20T11:07:27.160Z,35.10
2022-12-20T11:10:05.933Z,37.80
2022-12-20T11:12:53.616Z,38.70
2022-12-20T11:15:34.127Z,34.80
2022-12-20T11:18:17.149Z,34.20
2022-12-20T11:21:05.237Z,34.60
2022-12-20T11:23:47.113Z,32.90
2022-12-20T11:26:43.542Z,35.70
2022-12-20T11:29:44.683Z,36.00
2022-12-20T11:32:36.600Z,34.80
2022-12-20T11:35:20.032Z,38.50
2022-12-20T11:38:11.494Z,35.10
2022-12-20T11:40:56.464Z,36.80
2022-12-20T11:44:23.889Z,38.30
2022-12-20T11:47:08.700Z,42.30
2022-12-20T11:50:05.098Z,43.70
2022-12-20T11:52:48.929Z,45.00
2022-12-20T11:55:30.297Z,54.60
2022-12-20T11:58:18.999Z,39.30
2022-12-20T12:01:03.185Z,39.50
2022-12-20T12:03:41.723Z,36.40
2022-12-20T12:06:25.887Z,35.20
2022-12-20T12:09:19.687Z,38.20
2022-12-20T12:12:09.596Z,35.80
2022-12-20T12:14:57.174Z,35.70
2022-12-20T12:17:43.631Z,32.90
2022-12-20T12:20:39.871Z,40.20
2022-12-20T12:23:23.912Z,40.20
2022-12-20T12:26:00.013Z,36.20
2022-12-20T12:28:37.722Z,37.60
2022-12-20T12:31:19.837Z,44.30
2022-12-20T12:34:08.529Z,40.40
2022-12-20T12:37:15.273Z,35.30
2022-12-20T12:40:28.246Z,38.70
2022-12-20T12:43:48.385Z,43.00
2022-12-20T12:46:28.766Z,46.60
2022-12-20T12:49:08.362Z,45.40
2022-12-20T12:51:55.922Z,45.90
2022-12-20T12:54:37.698Z,55.70
2022-12-20T12:57:18.619Z,52.20
2022-12-20T12:59:54.049Z,42.40
2022-12-20T13:02:52.444Z,35.80
2022-12-20T13:05:38.726Z,38.80
2022-12-20T13:08:20.525Z,39.20
2022-12-20T13:11:32.836Z,33.40
2022-12-20T13:14:52.311Z,37.30
2022-12-20T13:17:51.116Z,40.20
2022-12-20T13:20:29.653Z,48.20
2022-12-20T13:23:24.896Z,43.50
2022-12-20T13:25:58.911Z,50.00
2022-12-20T13:28:55.981Z,46.90
2022-12-20T13:31:37.053Z,41.10
2022-12-20T13:34:55.282Z,33.30
2022-12-20T13:37:55.426Z,32.70
2022-12-20T13:40:41.016Z,34.70
2022-12-20T13:43:42.965Z,33.40
2022-12-20T13:46:28.737Z,38.90
2022-12-20T13:49:07.404Z,37.00
2022-12-20T13:51:41.563Z,35.40
2022-12-20T13:54:27.182Z,38.00
2022-12-20T13:57:01.787Z,35.70
2022-12-20T13:59:37.865Z,35.60
2022-12-20T14:02:25.107Z,35.40
2022-12-20T14:05:05.957Z,34.80
2022-12-20T14:07:41.138Z,34.00
2022-12-20T14:10:27.732Z,32.60
2022-12-20T14:13:02.603Z,32.30
2022-12-20T14:15:38.107Z,34.50
2022-12-20T14:18:24.177Z,30.20
2022-12-20T14:21:03.009Z,36.50
2022-12-20T14:23:46.234Z,41.50
2022-12-20T14:26:26.261Z,43.30
2022-12-20T14:29:04.036Z,40.70
2022-12-20T14:31:44.639Z,36.30
2022-12-20T14:34:29.441Z,41.30
2022-12-20T14:37:32.071Z,41.00
2022-12-20T14:40:25.931Z,37.80
2022-12-20T14:43:15.362Z,41.70
2022-12-20T14:45:49.838Z,41.60
2022-12-20T14:48:24.542Z,35.00
2022-12-20T14:50:58.645Z,38.30
2022-12-20T14:53:32.496Z,39.00
2022-12-20T14:56:06.961Z,44.50
2022-12-20T14:58:41.014Z,35.90
2022-12-20T15:01:28.688Z,38.40
2022-12-20T15:04:04.065Z,39.60
2022-12-20T15:06:44.792Z,40.40
2022-12-20T15:09:19.281Z,46.40
2022-12-20T15:11:54.737Z,41.10
2022-12-20T15:14:39.447Z,45.90
2022-12-20T15:17:17.379Z,49.00
2022-12-20T15:19:51.261Z,46.00
2022-12-20T15:22:25.062Z,36.70
2022-12-20T15:25:00.307Z,38.70
2022-12-20T15:27:34.068Z,36.70
2022-12-20T15:30:14.963Z,38.80
2022-12-20T15:32:55.732Z,32.10
2022-12-20T15:35:30.363Z,42.10
2022-12-20T15:38:04.592Z,61.30
2022-12-20T15:40:38.594Z,48.20
2022-12-20T15:43:20.738Z,35.30
2022-12-20T15:45:57.241Z,48.20
2022-12-20T15:48:31.054Z,59.40
2022-12-20T15:51:13.804Z,43.50
2022-12-20T15:53:48.001Z,44.60
2022-12-20T15:56:26.133Z,53.10
2022-12-20T15:59:00.534Z,48.10
2022-12-20T16:01:41.354Z,42.40
2022-12-20T16:04:21.987Z,44.20
2022-12-20T16:06:56.322Z,39.40
2022-12-20T16:09:30.228Z,43.30
2022-12-20T16:12:04.599Z,44.20
2022-12-20T16:14:39.219Z,48.40
2022-12-20T16:17:17.274Z,59.50
2022-12-20T16:19:51.134Z,40.60
2022-12-20T16:22:27.123Z,44.50
2022-12-20T16:25:01.811Z,37.90
2022-12-20T16:27:35.553Z,33.60
2022-12-20T16:30:19.790Z,34.60
2022-12-20T16:32:54.423Z,39.90
2022-12-20T16:35:33.336Z,39.10
2022-12-20T16:38:07.937Z,42.20
2022-12-20T16:40:42.130Z,35.10
2022-12-20T16:43:18.535Z,44.70
2022-12-20T16:45:52.246Z,49.70
2022-12-20T16:48:26.143Z,53.50
2022-12-20T16:51:00.103Z,45.40
2022-12-20T16:53:54.762Z,52.40
2022-12-20T16:56:29.496Z,58.80
2022-12-20T16:59:21.945Z,47.10
2022-12-20T17:01:59.365Z,38.10
2022-12-20T17:04:33.333Z,34.60
2022-12-20T17:07:07.746Z,35.90
2022-12-20T17:09:42.165Z,31.40
2022-12-20T17:12:22.574Z,40.20
2022-12-20T17:14:57.413Z,37.60
2022-12-20T17:17:32.058Z,32.90
2022-12-20T17:20:07.281Z,32.60
2022-12-20T17:25:38.178Z,37.90
2022-12-20T17:28:12.239Z,37.90
2022-12-20T17:30:46.223Z,40.50
2022-12-20T17:33:20.335Z,37.10
2022-12-20T17:35:54.643Z,43.20
2022-12-20T17:38:29.450Z,63.60
2022-12-20T17:41:03.756Z,44.40
2022-12-20T17:43:38.046Z,40.90
2022-12-20T17:46:14.007Z,53.10
2022-12-20T17:48:48.427Z,44.60
2022-12-20T17:51:25.696Z,39.20
2022-12-20T17:54:02.771Z,49.00
2022-12-20T17:56:38.634Z,39.60
2022-12-20T17:59:15.683Z,48.10
2022-12-20T18:01:50.781Z,44.10
2022-12-20T18:04:24.934Z,60.50
2022-12-20T18:06:59.007Z,54.50
2022-12-20T18:09:33.023Z,42.60
2022-12-20T18:12:07.709Z,40.40
2022-12-20T18:14:42.335Z,31.90
2022-12-20T18:17:17.651Z,41.60
2022-12-20T18:19:52.751Z,38.40
2022-12-20T18:22:26.688Z,32.60
2022-12-20T18:25:00.899Z,38.70
2022-12-20T18:27:37.147Z,43.40
2022-12-20T18:30:14.951Z,39.30
2022-12-20T18:32:48.919Z,43.20
2022-12-20T18:35:22.651Z,40.10
2022-12-20T18:37:56.690Z,49.60
2022-12-20T18:40:30.790Z,33.90
2022-12-20T18:43:06.532Z,37.10
2022-12-20T18:45:40.615Z,31.60
2022-12-20T18:48:15.571Z,33.40
2022-12-20T18:50:49.988Z,37.10
2022-12-20T18:53:24.487Z,38.70
2022-12-20T18:55:58.559Z,39.20
2022-12-20T18:58:32.624Z,39.00
2022-12-20T19:01:15.384Z,40.90
2022-12-20T19:03:49.854Z,37.30
2022-12-20T19:06:25.126Z,46.50
2022-12-20T19:08:59.990Z,48.00
2022-12-20T19:11:34.553Z,47.60
2022-12-20T19:14:09.195Z,39.00
2022-12-20T19:16:43.471Z,40.50
2022-12-20T19:19:17.895Z,43.00
2022-12-20T19:21:52.215Z,41.40
2022-12-20T19:24:27.052Z,39.60
2022-12-20T19:27:01.591Z,38.10
2022-12-20T19:29:35.844Z,39.10
2022-12-20T19:32:11.031Z,40.40
2022-12-20T19:34:45.463Z,44.90
2022-12-20T19:37:19.918Z,45.50
2022-12-20T19:39:54.327Z,43.50
2022-12-20T19:42:28.815Z,50.30
2022-12-20T19:45:03.701Z,42.30
2022-12-20T19:47:38.155Z,41.20
2022-12-20T19:50:15.029Z,44.90
2022-12-20T19:52:49.306Z,47.00
2022-12-20T19:55:23.539Z,49.20
2022-12-20T19:57:57.555Z,43.90
2022-12-20T20:00:32.430Z,43.30
2022-12-20T20:03:07.391Z,38.30
2022-12-20T20:05:41.921Z,37.80
2022-12-20T20:08:17.298Z,35.00
2022-12-20T20:10:57.467Z,36.80
2022-12-20T20:13:32.460Z,39.20
2022-12-20T20:16:09.890Z,37.70
2022-12-20T20:18:46.181Z,39.10
2022-12-20T20:21:24.001Z,37.60
2022-12-20T20:23:59.556Z,38.40
2022-12-20T20:26:34.269Z,37.90
2022-12-20T20:29:10.529Z,42.70
2022-12-20T20:31:44.645Z,40.70
2022-12-20T20:34:19.021Z,37.80
2022-12-20T20:36:53.172Z,42.40
2022-12-20T20:39:27.339Z,41.60
2022-12-20T20:42:01.392Z,41.10
2022-12-20T20:44:36.092Z,40.70
2022-12-20T20:47:11.050Z,42.00
2022-12-20T20:49:45.548Z,52.10
2022-12-20T20:52:19.838Z,43.00
2022-12-20T20:54:53.838Z,48.50
2022-12-20T20:57:28.129Z,51.20
2022-12-20T21:00:03.080Z,38.60
2022-12-20T21:02:37.577Z,36.30
2022-12-20T21:08:08.768Z,48.10
2022-12-20T21:10:43.460Z,47.30
2022-12-20T21:13:18.668Z,47.20
2022-12-20T21:15:54.151Z,45.80
2022-12-20T21:18:28.795Z,42.50
2022-12-20T21:21:08.720Z,44.00
2022-12-20T21:23:47.548Z,46.20
2022-12-20T21:26:25.152Z,50.80
2022-12-20T21:29:02.344Z,39.30
2022-12-20T21:31:37.350Z,39.80
2022-12-20T21:34:11.715Z,41.10
2022-12-20T21:36:46.093Z,35.70
2022-12-20T21:39:20.838Z,35.20
2022-12-20T21:42:01.544Z,27.80
2022-12-20T21:44:36.941Z,29.90
2022-12-20T21:47:11.346Z,43.80
2022-12-20T21:49:46.051Z,40.20
2022-12-20T21:52:20.364Z,51.70
2022-12-20T21:54:54.512Z,42.60
2022-12-20T21:57:28.867Z,58.30
2022-12-20T22:00:03.055Z,51.40
2022-12-20T22:02:42.762Z,48.00
2022-12-20T22:05:17.654Z,44.10
2022-12-20T22:07:52.020Z,37.70
2022-12-20T22:10:26.022Z,36.30
2022-12-20T22:13:00.605Z,35.90
2022-12-20T22:15:35.911Z,28.60
2022-12-20T22:18:11.361Z,22.80
2022-12-20T22:20:49.146Z,28.30
2022-12-20T22:23:23.229Z,35.20
2022-12-20T22:25:57.345Z,45.00
2022-12-20T22:28:32.257Z,48.10
2022-12-20T22:31:11.996Z,43.60
2022-12-20T22:33:46.852Z,40.70
2022-12-20T22:36:21.488Z,40.00
2022-12-20T22:38:58.399Z,40.40
2022-12-20T22:41:34.892Z,37.40
2022-12-20T22:44:09.959Z,29.10
2022-12-20T22:46:44.022Z,30.00
2022-12-20T22:49:20.919Z,31.00
2022-12-20T22:52:06.871Z,34.50
2022-12-20T22:54:41.613Z,42.80
2022-12-20T22:57:16.156Z,40.50
2022-12-20T22:59:50.355Z,29.50
2022-12-20T23:02:24.314Z,32.30
2022-12-20T23:04:58.594Z,31.10
2022-12-20T23:07:32.400Z,29.30
2022-12-20T23:10:27.558Z,34.60
2022-12-20T23:13:19.230Z,30.30
2022-12-20T23:15:53.480Z,38.10
2022-12-20T23:18:27.670Z,36.60
2022-12-20T23:21:19.943Z,29.40
2022-12-20T23:23:56.247Z,30.20
2022-12-20T23:26:31.162Z,27.70
2022-12-20T23:29:05.637Z,32.50
2022-12-20T23:31:40.599Z,36.50
2022-12-20T23:34:14.560Z,28.80
2022-12-20T23:36:48.823Z,35.50
2022-12-20T23:39:22.734Z,40.90
2022-12-20T23:41:56.425Z,37.50
2022-12-20T23:44:30.404Z,40.50
2022-12-20T23:47:04.348Z,38.50
2022-12-20T23:49:38.860Z,33.80
2022-12-20T23:52:12.653Z,37.00
2022-12-20T23:54:46.500Z,43.60
2022-12-20T23:57:20.353Z,44.90
2022-12-20T23:59:54.759Z,45.30
